createdAt,value
2023-02-14T00:00:27.697Z,101990.66
2023-02-14T00:02:54.410Z,101994.25
2023-02-14T00:05:21.055Z,101986.03
2023-02-14T00:07:47.553Z,101988.94
2023-02-14T00:10:14.101Z,101982.38
2023-02-14T00:12:40.686Z,101980.84
2023-02-14T00:15:22.625Z,101981.19
2023-02-14T00:17:50.828Z,101980.66
2023-02-14T00:20:17.840Z,101980.94
2023-02-14T00:22:44.377Z,101969.66
2023-02-14T00:25:11.050Z,101968.88
2023-02-14T00:27:38.060Z,101977.56
2023-02-14T00:30:06.838Z,101972.94
2023-02-14T00:32:33.701Z,101982.94
2023-02-14T00:35:00.468Z,101982.41
2023-02-14T00:37:26.985Z,101978.44
2023-02-14T00:39:53.631Z,101976.28
2023-02-14T00:42:20.142Z,101986.91
2023-02-14T00:44:46.698Z,101973.03
2023-02-14T00:47:13.237Z,101975.81
2023-02-14T00:49:39.833Z,101973.34
2023-02-14T00:52:06.369Z,101970.06
2023-02-14T00:54:32.959Z,101969.91
2023-02-14T00:56:59.680Z,101966.09
2023-02-14T00:59:26.272Z,101965.69
2023-02-14T01:01:52.981Z,101962.41
2023-02-14T01:04:19.500Z,101955.09
2023-02-14T01:06:46.147Z,101950.69
2023-02-14T01:09:12.724Z,101957.19
2023-02-14T01:11:39.742Z,101957.56
2023-02-14T01:14:06.903Z,101959.88
2023-02-14T01:16:33.523Z,101950.78
2023-02-14T01:19:01.275Z,101954.44
2023-02-14T01:21:30.941Z,101956.09
2023-02-14T01:24:00.297Z,101950.84
2023-02-14T01:26:28.155Z,101954.44
2023-02-14T01:28:56.054Z,101938.88
2023-02-14T01:31:26.475Z,101943.59
2023-02-14T01:33:54.095Z,101950.47
2023-02-14T01:36:20.563Z,101951.16
2023-02-14T01:38:47.636Z,101951.03
2023-02-14T01:41:14.560Z,101940.84
2023-02-14T01:44:09.649Z,101941.81
2023-02-14T01:46:38.026Z,101943.75
2023-02-14T01:49:13.344Z,101945.69
2023-02-14T01:51:45.756Z,101943.59
2023-02-14T01:54:13.349Z,101954.44
2023-02-14T01:56:47.770Z,101957.72
2023-02-14T01:59:19.809Z,101948.41
2023-02-14T02:01:49.999Z,101943.00
2023-02-14T02:04:22.210Z,101945.19
2023-02-14T02:06:54.579Z,101931.28
2023-02-14T02:09:46.296Z,101933.09
2023-02-14T02:12:13.401Z,101937.34
2023-02-14T02:14:42.951Z,101932.91
2023-02-14T02:17:39.058Z,101937.50
2023-02-14T02:20:30.456Z,101944.38
2023-02-14T02:23:21.269Z,101936.69
2023-02-14T02:25:59.307Z,101943.66
2023-02-14T02:28:31.865Z,101939.59
2023-02-14T02:31:35.982Z,101932.41
2023-02-14T02:34:39.981Z,101929.94
2023-02-14T02:37:34.379Z,101922.38
2023-02-14T02:40:16.163Z,101927.16
2023-02-14T02:42:54.852Z,101920.13
2023-02-14T02:45:24.127Z,101920.81
2023-02-14T02:48:09.983Z,101914.47
2023-02-14T02:51:07.642Z,101903.50
2023-02-14T02:53:59.177Z,101910.53
2023-02-14T02:56:49.701Z,101892.22
2023-02-14T02:59:18.638Z,101895.50
2023-02-14T03:01:55.184Z,101900.19
2023-02-14T03:04:41.304Z,101901.69
2023-02-14T03:07:26.540Z,101891.88
2023-02-14T03:09:58.576Z,101896.00
2023-02-14T03:12:34.301Z,101891.47
2023-02-14T03:15:19.075Z,101874.09
2023-02-14T03:18:03.029Z,101886.25
2023-02-14T03:20:47.980Z,101882.47
2023-02-14T03:23:52.578Z,101885.78
2023-02-14T03:26:27.353Z,101890.31
2023-02-14T03:29:09.723Z,101888.69
2023-02-14T03:32:25.776Z,101889.97
2023-02-14T03:35:30.928Z,101902.22
2023-02-14T03:38:12.620Z,101912.69
2023-02-14T03:40:49.529Z,101897.97
2023-02-14T03:43:25.256Z,101901.41
2023-02-14T03:46:16.496Z,101889.16
2023-02-14T03:48:45.993Z,101884.91
2023-02-14T03:51:15.278Z,101891.47
2023-02-14T03:53:46.616Z,101899.59
2023-02-14T03:56:22.401Z,101893.09
2023-02-14T03:58:53.340Z,101893.09
2023-02-14T04:01:39.219Z,101900.13
2023-02-14T04:04:07.487Z,101901.25
2023-02-14T04:06:33.999Z,101895.34
2023-02-14T04:09:00.608Z,101899.22
2023-02-14T04:11:27.564Z,101899.22
2023-02-14T04:13:54.089Z,101905.41
2023-02-14T04:16:20.662Z,101896.09
2023-02-14T04:19:05.897Z,101894.59
2023-02-14T04:21:32.615Z,101896.09
2023-02-14T04:23:59.097Z,101900.81
2023-02-14T04:26:25.620Z,101887.56
2023-02-14T04:28:52.112Z,101890.34
2023-02-14T04:31:18.766Z,101887.84
2023-02-14T04:33:48.144Z,101890.34
2023-02-14T04:36:14.939Z,101883.03
2023-02-14T04:38:41.573Z,101887.56
2023-02-14T04:41:08.185Z,101897.03
2023-02-14T04:43:34.746Z,101881.50
2023-02-14T04:46:01.224Z,101880.81
2023-02-14T04:48:27.772Z,101879.06
2023-02-14T04:50:55.195Z,101881.81
2023-02-14T04:53:22.751Z,101878.22
2023-02-14T04:55:50.005Z,101877.56
2023-02-14T04:58:16.980Z,101877.56
2023-02-14T05:00:43.509Z,101879.34
2023-02-14T05:03:10.358Z,101882.09
2023-02-14T05:05:36.876Z,101879.34
2023-02-14T05:08:03.443Z,101881.69
2023-02-14T05:10:30.010Z,101880.69
2023-02-14T05:12:56.560Z,101877.25
2023-02-14T05:15:23.354Z,101889.53
2023-02-14T05:17:50.047Z,101881.81
2023-02-14T05:20:16.636Z,101866.13
2023-02-14T05:22:43.116Z,101875.75
2023-02-14T05:25:09.637Z,101888.84
2023-02-14T05:27:36.167Z,101897.22
2023-02-14T05:30:02.929Z,101891.69
2023-02-14T05:32:29.523Z,101894.44
2023-02-14T05:34:56.208Z,101892.25
2023-02-14T05:37:22.679Z,101890.63
2023-02-14T05:39:49.277Z,101896.84
2023-02-14T05:42:15.843Z,101878.81
2023-02-14T05:44:42.350Z,101885.31
2023-02-14T05:47:08.892Z,101884.34
2023-02-14T05:49:36.181Z,101883.81
2023-02-14T05:52:02.779Z,101883.00
2023-02-14T05:54:29.315Z,101889.03
2023-02-14T05:56:56.378Z,101885.78
2023-02-14T05:59:22.881Z,101892.91
2023-02-14T06:01:49.494Z,101900.47
2023-02-14T06:04:16.028Z,101898.03
2023-02-14T06:06:42.622Z,101897.03
2023-02-14T06:09:09.148Z,101899.94
2023-02-14T06:11:35.723Z,101906.97
2023-02-14T06:14:02.198Z,101894.06
2023-02-14T06:16:28.811Z,101898.44
2023-02-14T06:18:55.285Z,101891.56
2023-02-14T06:21:21.806Z,101901.22
2023-02-14T06:23:48.686Z,101897.25
2023-02-14T06:26:15.181Z,101899.88
2023-02-14T06:28:42.794Z,101893.94
2023-02-14T06:31:16.396Z,101904.41
2023-02-14T06:33:43.003Z,101893.44
2023-02-14T06:36:09.869Z,101890.13
2023-02-14T06:38:36.466Z,101905.81
2023-02-14T06:41:07.763Z,101915.28
2023-02-14T06:43:34.995Z,101908.59
2023-02-14T06:46:02.587Z,101910.66
2023-02-14T06:48:29.776Z,101907.38
2023-02-14T06:50:56.280Z,101909.16
2023-02-14T06:53:22.894Z,101910.25
2023-02-14T06:55:49.567Z,101896.53
2023-02-14T06:58:16.095Z,101896.81
2023-02-14T07:00:42.761Z,101900.69
2023-02-14T07:03:09.485Z,101905.91
2023-02-14T07:05:36.703Z,101910.31
2023-02-14T07:08:03.684Z,101913.09
2023-02-14T07:10:30.280Z,101909.78
2023-02-14T07:12:56.837Z,101918.44
2023-02-14T07:15:23.376Z,101911.56
2023-02-14T07:17:50.001Z,101913.50
2023-02-14T07:20:18.253Z,101914.63
2023-02-14T07:22:45.223Z,101904.63
2023-02-14T07:25:12.503Z,101909.84
2023-02-14T07:27:39.485Z,101915.19
2023-02-14T07:30:07.796Z,101920.41
2023-02-14T07:32:34.606Z,101927.31
2023-02-14T07:35:01.165Z,101932.38
2023-02-14T07:37:27.664Z,101934.00
2023-02-14T07:39:54.238Z,101947.06
2023-02-14T07:42:20.768Z,101939.63
2023-02-14T07:44:47.385Z,101937.97
2023-02-14T07:47:13.908Z,101939.00
2023-02-14T07:49:40.387Z,101946.13
2023-02-14T07:52:07.158Z,101937.03
2023-02-14T07:54:33.660Z,101941.84
2023-02-14T07:57:00.336Z,101941.41
2023-02-14T07:59:26.861Z,101931.47
2023-02-14T08:01:53.421Z,101936.09
2023-02-14T08:04:20.080Z,101945.28
2023-02-14T08:06:46.705Z,101939.63
2023-02-14T08:09:24.615Z,101943.59
2023-02-14T08:12:15.384Z,101945.09
2023-02-14T08:14:43.180Z,101941.91
2023-02-14T08:17:10.960Z,101944.38
2023-02-14T08:19:37.643Z,101933.59
2023-02-14T08:22:04.844Z,101943.78
2023-02-14T08:24:31.772Z,101941.66
2023-02-14T08:26:58.723Z,101933.41
2023-02-14T08:29:25.863Z,101926.22
2023-02-14T08:31:53.025Z,101926.91
2023-02-14T08:34:19.825Z,101927.56
2023-02-14T08:36:47.531Z,101918.59
2023-02-14T08:39:14.056Z,101922.69
2023-02-14T08:41:40.926Z,101922.41
2023-02-14T08:44:07.410Z,101926.81
2023-02-14T08:46:33.957Z,101951.69
2023-02-14T08:49:00.614Z,101944.53
2023-02-14T08:51:27.198Z,101939.16
2023-02-14T08:53:55.080Z,101940.50
2023-02-14T08:56:22.759Z,101948.03
2023-02-14T08:58:52.569Z,101940.84
2023-02-14T09:01:19.421Z,101936.97
2023-02-14T09:03:46.116Z,101930.59
2023-02-14T09:06:17.286Z,101933.75
2023-02-14T09:08:44.946Z,101930.84
2023-02-14T09:11:14.109Z,101927.88
2023-02-14T09:13:41.967Z,101927.59
2023-02-14T09:16:10.783Z,101904.72
2023-02-14T09:18:37.772Z,101905.25
2023-02-14T09:21:13.459Z,101916.38
2023-02-14T09:23:40.080Z,101930.97
2023-02-14T09:26:09.779Z,101932.28
2023-02-14T09:28:36.860Z,101937.22
2023-02-14T09:31:24.980Z,101946.56
2023-02-14T09:33:52.366Z,101945.44
2023-02-14T09:36:18.911Z,101936.47
2023-02-14T09:38:45.634Z,101925.66
2023-02-14T09:41:28.975Z,101916.69
2023-02-14T09:44:01.376Z,101924.06
2023-02-14T09:46:30.983Z,101921.16
2023-02-14T09:48:58.668Z,101928.53
2023-02-14T09:51:29.198Z,101928.25
2023-02-14T09:54:19.855Z,101941.03
2023-02-14T09:56:51.244Z,101942.38
2023-02-14T09:59:24.758Z,101946.47
2023-02-14T10:02:30.417Z,101938.31
2023-02-14T10:05:15.440Z,101943.88
2023-02-14T10:07:50.366Z,101946.22
2023-02-14T10:10:25.418Z,101948.53
2023-02-14T10:13:00.278Z,101944.78
2023-02-14T10:15:31.775Z,101937.25
2023-02-14T10:18:06.988Z,101931.53
2023-02-14T10:20:41.563Z,101937.47
2023-02-14T10:23:32.576Z,101944.84
2023-02-14T10:26:02.822Z,101940.13
2023-02-14T10:28:34.243Z,101939.66
2023-02-14T10:31:24.439Z,101939.34
2023-02-14T10:33:52.511Z,101946.72
2023-02-14T10:36:45.444Z,101947.88
2023-02-14T10:39:24.154Z,101955.13
2023-02-14T10:42:02.203Z,101953.84
2023-02-14T10:44:55.025Z,101956.63
2023-02-14T10:47:53.437Z,101947.31
2023-02-14T10:50:46.581Z,101945.03
2023-02-14T10:53:34.352Z,101948.66
2023-02-14T10:56:08.519Z,101948.66
2023-02-14T10:58:38.669Z,101943.75
2023-02-14T11:01:14.780Z,101943.94
2023-02-14T11:03:55.899Z,101942.31
2023-02-14T11:06:22.579Z,101952.00
2023-02-14T11:08:49.219Z,101949.38
2023-02-14T11:11:35.212Z,101947.72
2023-02-14T11:16:54.563Z,101931.00
2023-02-14T11:19:27.113Z,101926.25
2023-02-14T11:21:56.989Z,101925.41
2023-02-14T11:24:31.714Z,101929.03
2023-02-14T11:27:07.381Z,101929.16
2023-02-14T11:29:54.697Z,101919.97
2023-02-14T11:32:25.535Z,101908.13
2023-02-14T11:34:57.985Z,101895.47
2023-02-14T11:37:28.310Z,101888.75
2023-02-14T11:39:57.985Z,101883.59
2023-02-14T11:42:37.050Z,101876.34
2023-02-14T11:45:05.325Z,101876.16
2023-02-14T11:47:34.948Z,101887.94
2023-02-14T11:50:06.876Z,101886.56
2023-02-14T11:52:45.410Z,101886.88
2023-02-14T11:55:24.828Z,101894.00
2023-02-14T11:57:51.803Z,101889.03
2023-02-14T12:00:19.895Z,101877.09
2023-02-14T12:02:49.926Z,101882.59
2023-02-14T12:05:19.522Z,101868.00
2023-02-14T12:07:48.855Z,101866.59
2023-02-14T12:10:18.050Z,101859.72
2023-02-14T12:12:59.641Z,101851.88
2023-02-14T12:15:42.718Z,101853.50
2023-02-14T12:18:09.247Z,101837.53
2023-02-14T12:20:41.972Z,101829.56
2023-02-14T12:23:32.949Z,101825.56
2023-02-14T12:26:43.243Z,101833.72
2023-02-14T12:29:12.942Z,101830.03
2023-02-14T12:31:40.240Z,101819.44
2023-02-14T12:34:06.801Z,101834.44
2023-02-14T12:36:49.552Z,101831.38
2023-02-14T12:39:22.048Z,101825.81
2023-02-14T12:42:10.235Z,101816.41
2023-02-14T12:45:04.089Z,101813.47
2023-02-14T12:47:49.369Z,101807.88
2023-02-14T12:50:29.192Z,101800.28
2023-02-14T12:53:01.739Z,101788.56
2023-02-14T12:55:54.128Z,101789.66
2023-02-14T12:59:16.447Z,101794.81
2023-02-14T13:02:13.758Z,101792.03
2023-02-14T13:04:49.133Z,101799.22
2023-02-14T13:07:38.180Z,101799.69
2023-02-14T13:10:15.523Z,101799.47
2023-02-14T13:13:02.305Z,101793.75
2023-02-14T13:15:47.083Z,101804.97
2023-02-14T13:18:44.587Z,101796.41
2023-02-14T13:21:15.300Z,101795.56
2023-02-14T13:23:48.707Z,101784.31
2023-02-14T13:26:24.568Z,101780.97
2023-02-14T13:28:56.164Z,101782.16
2023-02-14T13:31:23.333Z,101780.72
2023-02-14T13:34:22.246Z,101769.47
2023-02-14T13:36:49.524Z,101764.72
2023-02-14T13:39:27.603Z,101766.31
2023-02-14T13:41:54.179Z,101762.19
2023-02-14T13:44:38.805Z,101757.41
2023-02-14T13:47:07.027Z,101751.22
2023-02-14T13:49:34.911Z,101753.03
2023-02-14T13:52:04.689Z,101745.84
2023-02-14T13:54:37.256Z,101737.22
2023-02-14T13:57:26.975Z,101736.94
2023-02-14T14:00:21.455Z,101738.94
2023-02-14T14:02:50.120Z,101740.56
2023-02-14T14:05:39.515Z,101738.28
2023-02-14T14:08:21.265Z,101728.47
2023-02-14T14:10:49.278Z,101729.28
2023-02-14T14:13:40.565Z,101730.31
2023-02-14T14:16:28.392Z,101719.66
2023-02-14T14:19:04.730Z,101714.75
2023-02-14T14:21:33.887Z,101716.97
2023-02-14T14:24:22.339Z,101709.19
2023-02-14T14:26:57.415Z,101715.34
2023-02-14T14:29:35.616Z,101714.50
2023-02-14T14:32:10.644Z,101715.53
2023-02-14T14:34:37.289Z,101715.78
2023-02-14T14:37:16.840Z,101723.13
2023-02-14T14:39:51.453Z,101719.66
2023-02-14T14:42:18.593Z,101720.72
2023-02-14T14:44:49.688Z,101719.09
2023-02-14T14:47:29.477Z,101728.91
2023-02-14T14:50:03.758Z,101733.63
2023-02-14T14:52:41.726Z,101727.72
2023-02-14T14:55:16.739Z,101732.00
2023-02-14T14:57:50.487Z,101721.56
2023-02-14T15:00:21.541Z,101723.66
2023-02-14T15:03:02.839Z,101719.56
2023-02-14T15:05:51.793Z,101718.97
2023-02-14T15:08:21.699Z,101724.50
2023-02-14T15:11:02.860Z,101721.25
2023-02-14T15:13:50.621Z,101717.19
2023-02-14T15:16:28.816Z,101718.22
2023-02-14T15:19:09.981Z,101708.00
2023-02-14T15:21:36.773Z,101715.41
2023-02-14T15:24:03.881Z,101713.75
2023-02-14T15:26:34.533Z,101714.41
2023-02-14T15:29:06.798Z,101711.16
2023-02-14T15:31:38.293Z,101712.63
2023-02-14T15:34:06.726Z,101710.16
2023-02-14T15:36:34.916Z,101713.25
2023-02-14T15:39:04.399Z,101721.84
2023-02-14T15:41:30.979Z,101719.44
2023-02-14T15:43:58.129Z,101710.25
2023-02-14T15:46:26.388Z,101711.72
2023-02-14T15:48:55.349Z,101707.63
2023-02-14T15:51:29.365Z,101713.38
2023-02-14T15:53:59.555Z,101701.34
2023-02-14T15:56:35.179Z,101702.00
2023-02-14T15:59:03.868Z,101699.94
2023-02-14T16:01:33.585Z,101711.03
2023-02-14T16:04:03.983Z,101705.31
2023-02-14T16:06:39.942Z,101698.78
2023-02-14T16:09:24.823Z,101698.59
2023-02-14T16:11:51.321Z,101704.09
2023-02-14T16:14:28.893Z,101702.91
2023-02-14T16:17:06.863Z,101703.78
2023-02-14T16:19:38.999Z,101700.72
2023-02-14T16:22:07.153Z,101710.13
2023-02-14T16:24:34.765Z,101701.78
2023-02-14T16:27:06.977Z,101697.91
2023-02-14T16:29:36.125Z,101698.31
2023-02-14T16:32:16.328Z,101702.63
2023-02-14T16:34:44.330Z,101701.41
2023-02-14T16:37:20.114Z,101701.44
2023-02-14T16:39:47.593Z,101695.94
2023-02-14T16:42:18.279Z,101692.50
2023-02-14T16:44:46.461Z,101693.16
2023-02-14T16:47:15.339Z,101693.16
2023-02-14T16:49:42.112Z,101686.47
2023-02-14T16:52:18.185Z,101688.09
2023-02-14T16:54:45.120Z,101684.03
2023-02-14T16:57:20.299Z,101687.72
2023-02-14T16:59:47.303Z,101680.41
2023-02-14T17:02:14.009Z,101679.19
2023-02-14T17:04:40.581Z,101679.38
2023-02-14T17:07:07.732Z,101689.34
2023-02-14T17:09:39.988Z,101688.09
2023-02-14T17:12:14.826Z,101690.53
2023-02-14T17:14:47.604Z,101695.22
2023-02-14T17:17:14.473Z,101688.28
2023-02-14T17:19:41.282Z,101694.16
2023-02-14T17:22:08.649Z,101692.72
2023-02-14T17:24:35.243Z,101694.91
2023-02-14T17:27:01.732Z,101692.44
2023-02-14T17:29:28.226Z,101688.16
2023-02-14T17:31:54.890Z,101685.09
2023-02-14T17:34:21.523Z,101681.81
2023-02-14T17:36:48.061Z,101683.06
2023-02-14T17:39:15.027Z,101682.97
2023-02-14T17:41:41.526Z,101683.63
2023-02-14T17:44:08.448Z,101689.28
2023-02-14T17:46:35.224Z,101689.84
2023-02-14T17:49:02.687Z,101692.66
2023-02-14T17:51:29.564Z,101687.34
2023-02-14T17:53:58.790Z,101697.94
2023-02-14T17:56:26.608Z,101691.56
2023-02-14T17:58:55.054Z,101688.06
2023-02-14T18:01:28.175Z,101693.94
2023-02-14T18:03:55.128Z,101691.63
2023-02-14T18:06:22.145Z,101690.75
2023-02-14T18:08:53.100Z,101679.94
2023-02-14T18:11:21.549Z,101680.53
2023-02-14T18:13:48.761Z,101679.28
2023-02-14T18:16:18.008Z,101675.09
2023-02-14T18:18:45.146Z,101677.50
2023-02-14T18:21:14.772Z,101671.56
2023-02-14T18:23:42.296Z,101671.94
2023-02-14T18:26:14.004Z,101677.19
2023-02-14T18:28:40.771Z,101678.38
2023-02-14T18:31:10.360Z,101672.44
2023-02-14T18:33:38.019Z,101676.88
2023-02-14T18:36:12.178Z,101681.06
2023-02-14T18:38:41.120Z,101669.25
2023-02-14T18:41:09.878Z,101674.28
2023-02-14T18:43:37.033Z,101671.41
2023-02-14T18:46:05.041Z,101671.41
2023-02-14T18:48:32.434Z,101675.44
2023-02-14T18:51:13.938Z,101671.53
2023-02-14T18:53:41.372Z,101682.47
2023-02-14T18:56:10.649Z,101691.13
2023-02-14T18:58:38.851Z,101683.56
2023-02-14T19:01:15.647Z,101683.19
2023-02-14T19:03:43.082Z,101685.34
2023-02-14T19:06:10.397Z,101685.34
2023-02-14T19:08:39.283Z,101678.41
2023-02-14T19:11:21.291Z,101672.06
2023-02-14T19:13:50.958Z,101669.34
2023-02-14T19:16:20.775Z,101671.53
2023-02-14T19:18:49.686Z,101675.19
2023-02-14T19:21:25.006Z,101674.13
2023-02-14T19:23:53.893Z,101671.59
2023-02-14T19:26:26.720Z,101677.03
2023-02-14T19:29:01.836Z,101667.06
2023-02-14T19:31:28.855Z,101662.13
2023-02-14T19:33:55.521Z,101655.59
2023-02-14T19:36:23.616Z,101666.91
2023-02-14T19:38:53.479Z,101662.59
2023-02-14T19:41:26.310Z,101661.91
2023-02-14T19:43:56.265Z,101659.63
2023-02-14T19:46:22.987Z,101662.44
2023-02-14T19:48:49.979Z,101660.19
2023-02-14T19:51:17.560Z,101654.44
2023-02-14T19:53:44.113Z,101648.38
2023-02-14T19:56:11.193Z,101643.09
2023-02-14T19:58:37.795Z,101633.56
2023-02-14T20:01:05.883Z,101640.66
2023-02-14T20:03:33.052Z,101645.47
2023-02-14T20:05:59.764Z,101642.59
2023-02-14T20:08:26.273Z,101638.94
2023-02-14T20:10:52.760Z,101640.91
2023-02-14T20:13:19.248Z,101634.38
2023-02-14T20:15:45.930Z,101631.50
2023-02-14T20:18:12.464Z,101628.69
2023-02-14T20:21:03.844Z,101634.47
2023-02-14T20:23:32.766Z,101623.41
2023-02-14T20:25:59.418Z,101617.50
2023-02-14T20:28:25.963Z,101616.59
2023-02-14T20:30:52.708Z,101613.69
2023-02-14T20:33:19.394Z,101608.16
2023-02-14T20:35:45.899Z,101601.50
2023-02-14T20:38:13.663Z,101601.97
2023-02-14T20:40:42.840Z,101595.44
2023-02-14T20:43:09.936Z,101598.44
2023-02-14T20:45:36.481Z,101603.72
2023-02-14T20:48:04.312Z,101600.88
2023-02-14T20:50:31.738Z,101601.63
2023-02-14T20:52:58.959Z,101602.97
2023-02-14T20:55:27.760Z,101600.25
2023-02-14T20:57:54.860Z,101602.16
2023-02-14T21:00:25.607Z,101597.41
2023-02-14T21:02:52.395Z,101600.09
2023-02-14T21:05:20.956Z,101601.81
2023-02-14T21:07:47.600Z,101597.44
2023-02-14T21:10:14.851Z,101594.53
2023-02-14T21:12:41.649Z,101590.69
2023-02-14T21:15:12.164Z,101586.31
2023-02-14T21:17:38.746Z,101588.22
2023-02-14T21:20:06.200Z,101590.22
2023-02-14T21:22:32.988Z,101587.13
2023-02-14T21:24:59.624Z,101588.47
2023-02-14T21:27:26.167Z,101581.94
2023-02-14T21:29:52.775Z,101583.44
2023-02-14T21:32:19.422Z,101581.00
2023-02-14T21:34:46.023Z,101580.66
2023-02-14T21:37:13.370Z,101574.47
2023-02-14T21:39:40.128Z,101580.53
2023-02-14T21:42:07.745Z,101584.78
2023-02-14T21:44:53.170Z,101583.34
2023-02-14T21:47:19.691Z,101585.16
2023-02-14T21:50:04.764Z,101578.91
2023-02-14T21:52:31.708Z,101575.63
2023-02-14T21:54:58.545Z,101575.41
2023-02-14T21:57:25.079Z,101566.69
2023-02-14T21:59:51.612Z,101558.63
2023-02-14T22:02:18.240Z,101566.97
2023-02-14T22:04:45.756Z,101567.09
2023-02-14T22:07:12.429Z,101561.38
2023-02-14T22:09:38.978Z,101555.28
2023-02-14T22:12:05.745Z,101557.94
2023-02-14T22:14:32.262Z,101562.25
2023-02-14T22:16:59.221Z,101545.34
2023-02-14T22:19:25.916Z,101542.72
2023-02-14T22:21:52.433Z,101544.25
2023-02-14T22:24:19.017Z,101546.63
2023-02-14T22:26:45.568Z,101538.25
2023-02-14T22:29:12.876Z,101537.03
2023-02-14T22:31:42.097Z,101540.00
2023-02-14T22:34:11.272Z,101553.69
2023-02-14T22:36:38.065Z,101551.34
2023-02-14T22:39:05.827Z,101553.97
2023-02-14T22:41:37.629Z,101549.00
2023-02-14T22:44:04.886Z,101550.53
2023-02-14T22:46:31.477Z,101539.34
2023-02-14T22:48:58.733Z,101537.38
2023-02-14T22:51:28.685Z,101540.34
2023-02-14T22:53:58.536Z,101533.63
2023-02-14T22:56:31.073Z,101530.50
2023-02-14T22:59:04.789Z,101532.59
2023-02-14T23:01:32.752Z,101538.38
2023-02-14T23:04:01.021Z,101532.53
2023-02-14T23:06:29.707Z,101534.06
2023-02-14T23:08:56.600Z,101537.56
2023-02-14T23:11:29.184Z,101535.88
2023-02-14T23:14:15.343Z,101542.00
2023-02-14T23:17:00.954Z,101541.31
2023-02-14T23:19:48.592Z,101531.50
2023-02-14T23:22:37.103Z,101526.63
2023-02-14T23:25:07.110Z,101521.06
2023-02-14T23:27:37.957Z,101519.94
2023-02-14T23:30:07.420Z,101514.03
2023-02-14T23:32:34.234Z,101517.19
2023-02-14T23:35:00.784Z,101518.19
2023-02-14T23:37:27.705Z,101508.00
2023-02-14T23:39:54.228Z,101509.00
2023-02-14T23:42:20.711Z,101500.84
2023-02-14T23:44:47.670Z,101501.00
2023-02-14T23:47:14.966Z,101487.59
2023-02-14T23:49:42.652Z,101486.97
2023-02-14T23:52:11.564Z,101493.66
2023-02-14T23:54:38.769Z,101491.03
2023-02-14T23:57:07.400Z,101489.16
2023-02-14T23:59:34.347Z,101485.25
